Terminal Aerodrome Forecast
Issued by NWS Cleveland, OH

Home | Current Version | Previous Version | Graphics & Text | Print | Product List | Glossary On
Versions: 1 2 3 4 5 6 7 8 9 10 11 12 13 14 15 16 17 18 19
000
FTUS41 KCLE 292300
TAFERI
TAF
KERI 292327Z 3000/3024 29010KT P6SM SKC
     FM301000 21003KT P6SM SCT250
     FM301200 28005KT P6SM BKN040 OVC100
     FM301400 30006KT P6SM -SHRA OVC015
     FM301700 VRB03KT P6SM OVC025
     FM302300 30006KT 4SM -DZ BR OVC006=

USA.gov is the U.S. government's official web portal to all federal, state and local government web resources and services.